sensor_id;sensor_type;location;lat;lon;timestamp;temperature;humidity
23371;DHT22;11858;51.056;3.712;2022-10-16T00:01:41;14.80;99.90
23371;DHT22;11858;51.056;3.712;2022-10-16T00:04:07;14.70;99.90
23371;DHT22;11858;51.056;3.712;2022-10-16T00:06:32;14.70;99.90
23371;DHT22;11858;51.056;3.712;2022-10-16T00:08:58;14.60;99.90
23371;DHT22;11858;51.056;3.712;2022-10-16T00:11:30;14.40;99.90
23371;DHT22;11858;51.056;3.712;2022-10-16T00:13:58;14.40;99.90
23371;DHT22;11858;51.056;3.712;2022-10-16T00:16:25;14.40;99.90
23371;DHT22;11858;51.056;3.712;2022-10-16T00:18:51;14.60;99.90
23371;DHT22;11858;51.056;3.712;2022-10-16T00:21:19;14.70;99.90
23371;DHT22;11858;51.056;3.712;2022-10-16T00:23:45;14.60;99.90
23371;DHT22;11858;51.056;3.712;2022-10-16T00:26:14;14.50;99.90
23371;DHT22;11858;51.056;3.712;2022-10-16T00:28:40;14.50;99.90
23371;DHT22;11858;51.056;3.712;2022-10-16T00:31:08;14.40;99.90
23371;DHT22;11858;51.056;3.712;2022-10-16T00:33:35;14.40;99.90
23371;DHT22;11858;51.056;3.712;2022-10-16T00:36:03;14.40;99.90
23371;DHT22;11858;51.056;3.712;2022-10-16T00:38:28;14.20;99.90
23371;DHT22;11858;51.056;3.712;2022-10-16T00:40:54;14.30;99.90
23371;DHT22;11858;51.056;3.712;2022-10-16T00:46:23;14.00;99.90
23371;DHT22;11858;51.056;3.712;2022-10-16T00:49:03;14.10;99.90
23371;DHT22;11858;51.056;3.712;2022-10-16T00:51:35;14.20;99.90
23371;DHT22;11858;51.056;3.712;2022-10-16T00:54:03;14.30;99.90
23371;DHT22;11858;51.056;3.712;2022-10-16T00:56:29;14.30;99.90
23371;DHT22;11858;51.056;3.712;2022-10-16T00:58:55;14.30;99.90
23371;DHT22;11858;51.056;3.712;2022-10-16T01:01:20;14.30;99.90
23371;DHT22;11858;51.056;3.712;2022-10-16T01:03:46;14.20;99.90
23371;DHT22;11858;51.056;3.712;2022-10-16T01:09:30;14.20;99.90
23371;DHT22;11858;51.056;3.712;2022-10-16T01:12:12;14.10;99.90
23371;DHT22;11858;51.056;3.712;2022-10-16T01:14:56;14.10;99.90
23371;DHT22;11858;51.056;3.712;2022-10-16T01:22:55;14.10;99.90
23371;DHT22;11858;51.056;3.712;2022-10-16T01:28:06;14.20;99.90
23371;DHT22;11858;51.056;3.712;2022-10-16T01:30:35;14.10;99.90
23371;DHT22;11858;51.056;3.712;2022-10-16T01:33:09;14.00;99.90
23371;DHT22;11858;51.056;3.712;2022-10-16T01:35:42;14.10;99.90
23371;DHT22;11858;51.056;3.712;2022-10-16T01:38:35;14.20;99.90
23371;DHT22;11858;51.056;3.712;2022-10-16T01:41:08;14.10;99.90
23371;DHT22;11858;51.056;3.712;2022-10-16T01:43:52;14.00;99.90
23371;DHT22;11858;51.056;3.712;2022-10-16T01:46:21;14.00;99.90
23371;DHT22;11858;51.056;3.712;2022-10-16T01:48:48;14.00;99.90
23371;DHT22;11858;51.056;3.712;2022-10-16T01:51:17;14.10;99.90
23371;DHT22;11858;51.056;3.712;2022-10-16T01:53:48;14.00;99.90
23371;DHT22;11858;51.056;3.712;2022-10-16T01:56:15;14.00;99.90
23371;DHT22;11858;51.056;3.712;2022-10-16T01:58:47;14.10;99.90
23371;DHT22;11858;51.056;3.712;2022-10-16T02:01:16;14.10;99.90
23371;DHT22;11858;51.056;3.712;2022-10-16T02:03:44;14.10;99.90
23371;DHT22;11858;51.056;3.712;2022-10-16T02:06:11;14.10;99.90
23371;DHT22;11858;51.056;3.712;2022-10-16T02:08:37;14.10;99.90
23371;DHT22;11858;51.056;3.712;2022-10-16T02:11:04;14.00;99.90
23371;DHT22;11858;51.056;3.712;2022-10-16T02:13:40;13.90;99.90
23371;DHT22;11858;51.056;3.712;2022-10-16T02:16:08;14.00;99.90
23371;DHT22;11858;51.056;3.712;2022-10-16T02:18:34;13.90;99.90
23371;DHT22;11858;51.056;3.712;2022-10-16T02:21:22;13.90;99.90
23371;DHT22;11858;51.056;3.712;2022-10-16T02:26:52;13.90;99.90
23371;DHT22;11858;51.056;3.712;2022-10-16T02:29:24;14.00;99.90
23371;DHT22;11858;51.056;3.712;2022-10-16T02:31:54;14.10;99.90
23371;DHT22;11858;51.056;3.712;2022-10-16T02:34:22;14.10;99.90
23371;DHT22;11858;51.056;3.712;2022-10-16T02:36:50;14.00;99.90
23371;DHT22;11858;51.056;3.712;2022-10-16T02:39:16;13.90;99.90
23371;DHT22;11858;51.056;3.712;2022-10-16T02:41:43;13.90;99.90
23371;DHT22;11858;51.056;3.712;2022-10-16T02:44:09;13.90;99.90
23371;DHT22;11858;51.056;3.712;2022-10-16T02:46:35;14.10;99.90
23371;DHT22;11858;51.056;3.712;2022-10-16T02:49:00;14.00;99.90
23371;DHT22;11858;51.056;3.712;2022-10-16T02:51:26;14.00;99.90
23371;DHT22;11858;51.056;3.712;2022-10-16T02:53:52;13.90;99.90
23371;DHT22;11858;51.056;3.712;2022-10-16T02:56:17;13.80;99.90
23371;DHT22;11858;51.056;3.712;2022-10-16T02:58:43;14.00;99.90
23371;DHT22;11858;51.056;3.712;2022-10-16T03:01:09;13.90;99.90
23371;DHT22;11858;51.056;3.712;2022-10-16T03:03:34;13.90;99.90
23371;DHT22;11858;51.056;3.712;2022-10-16T03:06:00;13.90;99.90
23371;DHT22;11858;51.056;3.712;2022-10-16T03:08:26;13.70;99.90
23371;DHT22;11858;51.056;3.712;2022-10-16T03:10:52;13.70;99.90
23371;DHT22;11858;51.056;3.712;2022-10-16T03:13:17;13.60;99.90
23371;DHT22;11858;51.056;3.712;2022-10-16T03:15:45;13.80;99.90
23371;DHT22;11858;51.056;3.712;2022-10-16T03:18:11;13.70;99.90
23371;DHT22;11858;51.056;3.712;2022-10-16T03:20:37;13.80;99.90
23371;DHT22;11858;51.056;3.712;2022-10-16T03:23:03;13.80;99.90
23371;DHT22;11858;51.056;3.712;2022-10-16T03:25:28;13.70;99.90
23371;DHT22;11858;51.056;3.712;2022-10-16T03:27:54;13.60;99.90
23371;DHT22;11858;51.056;3.712;2022-10-16T03:30:20;13.60;99.90
23371;DHT22;11858;51.056;3.712;2022-10-16T03:32:46;13.60;99.90
23371;DHT22;11858;51.056;3.712;2022-10-16T03:35:12;13.60;99.90
23371;DHT22;11858;51.056;3.712;2022-10-16T03:37:37;13.60;99.90
23371;DHT22;11858;51.056;3.712;2022-10-16T03:40:04;13.60;99.90
23371;DHT22;11858;51.056;3.712;2022-10-16T03:42:30;13.70;99.90
23371;DHT22;11858;51.056;3.712;2022-10-16T03:44:55;13.80;99.90
23371;DHT22;11858;51.056;3.712;2022-10-16T03:47:21;13.80;99.90
23371;DHT22;11858;51.056;3.712;2022-10-16T03:49:49;13.80;99.90
23371;DHT22;11858;51.056;3.712;2022-10-16T03:52:15;13.80;99.90
23371;DHT22;11858;51.056;3.712;2022-10-16T03:54:41;13.80;99.90
23371;DHT22;11858;51.056;3.712;2022-10-16T03:57:06;13.70;99.90
23371;DHT22;11858;51.056;3.712;2022-10-16T03:59:32;13.60;99.90
23371;DHT22;11858;51.056;3.712;2022-10-16T04:01:58;13.60;99.90
23371;DHT22;11858;51.056;3.712;2022-10-16T04:04:23;13.60;99.90
23371;DHT22;11858;51.056;3.712;2022-10-16T04:06:50;13.70;99.90
23371;DHT22;11858;51.056;3.712;2022-10-16T04:09:16;13.70;99.90
23371;DHT22;11858;51.056;3.712;2022-10-16T04:11:42;13.70;99.90
23371;DHT22;11858;51.056;3.712;2022-10-16T04:14:08;13.70;99.90
23371;DHT22;11858;51.056;3.712;2022-10-16T04:16:34;13.60;99.90
23371;DHT22;11858;51.056;3.712;2022-10-16T04:19:00;13.60;99.90
23371;DHT22;11858;51.056;3.712;2022-10-16T04:21:25;13.60;99.90
23371;DHT22;11858;51.056;3.712;2022-10-16T04:23:51;13.60;99.90
23371;DHT22;11858;51.056;3.712;2022-10-16T04:26:17;13.60;99.90
23371;DHT22;11858;51.056;3.712;2022-10-16T04:28:43;13.50;99.90
23371;DHT22;11858;51.056;3.712;2022-10-16T04:31:08;13.60;99.90
23371;DHT22;11858;51.056;3.712;2022-10-16T04:33:34;13.70;99.90
23371;DHT22;11858;51.056;3.712;2022-10-16T04:36:01;13.80;99.90
23371;DHT22;11858;51.056;3.712;2022-10-16T04:38:27;13.70;99.90
23371;DHT22;11858;51.056;3.712;2022-10-16T04:40:53;13.50;99.90
23371;DHT22;11858;51.056;3.712;2022-10-16T04:43:19;13.40;99.90
23371;DHT22;11858;51.056;3.712;2022-10-16T04:45:45;13.50;99.90
23371;DHT22;11858;51.056;3.712;2022-10-16T04:48:11;13.60;99.90
23371;DHT22;11858;51.056;3.712;2022-10-16T04:50:37;13.50;99.90
23371;DHT22;11858;51.056;3.712;2022-10-16T04:53:03;13.60;99.90
23371;DHT22;11858;51.056;3.712;2022-10-16T04:55:29;13.60;99.90
23371;DHT22;11858;51.056;3.712;2022-10-16T04:57:54;13.50;99.90
23371;DHT22;11858;51.056;3.712;2022-10-16T05:00:20;13.70;99.90
23371;DHT22;11858;51.056;3.712;2022-10-16T05:02:49;13.60;99.90
23371;DHT22;11858;51.056;3.712;2022-10-16T05:05:14;13.40;99.90
23371;DHT22;11858;51.056;3.712;2022-10-16T05:07:40;13.50;99.90
23371;DHT22;11858;51.056;3.712;2022-10-16T05:10:06;13.60;99.90
23371;DHT22;11858;51.056;3.712;2022-10-16T05:12:33;13.50;99.90
23371;DHT22;11858;51.056;3.712;2022-10-16T05:14:58;13.50;99.90
23371;DHT22;11858;51.056;3.712;2022-10-16T05:17:25;13.70;99.90
23371;DHT22;11858;51.056;3.712;2022-10-16T05:19:51;13.60;99.90
23371;DHT22;11858;51.056;3.712;2022-10-16T05:22:16;13.60;99.90
23371;DHT22;11858;51.056;3.712;2022-10-16T05:24:42;13.70;99.90
23371;DHT22;11858;51.056;3.712;2022-10-16T05:27:07;13.70;99.90
23371;DHT22;11858;51.056;3.712;2022-10-16T05:29:33;13.80;99.90
23371;DHT22;11858;51.056;3.712;2022-10-16T05:31:59;13.80;99.90
23371;DHT22;11858;51.056;3.712;2022-10-16T05:34:24;13.60;99.90
23371;DHT22;11858;51.056;3.712;2022-10-16T05:36:50;13.60;99.90
23371;DHT22;11858;51.056;3.712;2022-10-16T05:39:16;13.70;99.90
23371;DHT22;11858;51.056;3.712;2022-10-16T05:41:42;13.80;99.90
23371;DHT22;11858;51.056;3.712;2022-10-16T05:44:08;13.90;99.90
23371;DHT22;11858;51.056;3.712;2022-10-16T05:46:34;14.00;99.90
23371;DHT22;11858;51.056;3.712;2022-10-16T05:49:00;14.00;99.90
23371;DHT22;11858;51.056;3.712;2022-10-16T05:51:25;13.90;99.90
23371;DHT22;11858;51.056;3.712;2022-10-16T05:53:52;13.80;99.90
23371;DHT22;11858;51.056;3.712;2022-10-16T05:56:18;13.80;99.90
23371;DHT22;11858;51.056;3.712;2022-10-16T05:58:43;13.70;99.90
23371;DHT22;11858;51.056;3.712;2022-10-16T06:01:10;13.80;99.90
23371;DHT22;11858;51.056;3.712;2022-10-16T06:03:36;13.80;99.90
23371;DHT22;11858;51.056;3.712;2022-10-16T06:06:30;13.80;99.90
23371;DHT22;11858;51.056;3.712;2022-10-16T06:08:57;13.60;99.90
23371;DHT22;11858;51.056;3.712;2022-10-16T06:11:25;13.60;99.90
23371;DHT22;11858;51.056;3.712;2022-10-16T06:13:52;13.50;99.90
23371;DHT22;11858;51.056;3.712;2022-10-16T06:16:18;13.50;99.90
23371;DHT22;11858;51.056;3.712;2022-10-16T06:18:43;13.50;99.90
23371;DHT22;11858;51.056;3.712;2022-10-16T06:21:17;13.40;99.90
23371;DHT22;11858;51.056;3.712;2022-10-16T06:23:43;13.50;99.90
23371;DHT22;11858;51.056;3.712;2022-10-16T06:26:12;13.70;99.90
23371;DHT22;11858;51.056;3.712;2022-10-16T06:28:38;13.60;99.90
23371;DHT22;11858;51.056;3.712;2022-10-16T06:31:05;13.70;99.90
23371;DHT22;11858;51.056;3.712;2022-10-16T06:33:31;13.70;99.90
23371;DHT22;11858;51.056;3.712;2022-10-16T06:38:30;13.50;99.90
23371;DHT22;11858;51.056;3.712;2022-10-16T06:40:56;13.50;99.90
23371;DHT22;11858;51.056;3.712;2022-10-16T06:43:22;13.60;99.90
23371;DHT22;11858;51.056;3.712;2022-10-16T06:45:55;13.70;99.90
23371;DHT22;11858;51.056;3.712;2022-10-16T06:48:22;13.80;99.90
23371;DHT22;11858;51.056;3.712;2022-10-16T06:51:23;13.80;99.90
23371;DHT22;11858;51.056;3.712;2022-10-16T06:53:52;13.70;99.90
23371;DHT22;11858;51.056;3.712;2022-10-16T06:56:25;13.80;99.90
23371;DHT22;11858;51.056;3.712;2022-10-16T06:58:52;13.80;99.90
23371;DHT22;11858;51.056;3.712;2022-10-16T07:01:19;13.80;99.90
23371;DHT22;11858;51.056;3.712;2022-10-16T07:03:46;13.80;99.90
23371;DHT22;11858;51.056;3.712;2022-10-16T07:06:14;13.80;99.90
23371;DHT22;11858;51.056;3.712;2022-10-16T07:08:41;13.80;99.90
23371;DHT22;11858;51.056;3.712;2022-10-16T07:11:10;13.90;99.90
23371;DHT22;11858;51.056;3.712;2022-10-16T07:13:36;14.00;99.90
23371;DHT22;11858;51.056;3.712;2022-10-16T07:16:14;14.00;99.90
23371;DHT22;11858;51.056;3.712;2022-10-16T07:18:40;14.30;99.90
23371;DHT22;11858;51.056;3.712;2022-10-16T07:21:16;14.40;99.90
23371;DHT22;11858;51.056;3.712;2022-10-16T07:23:43;14.40;99.90
23371;DHT22;11858;51.056;3.712;2022-10-16T07:26:10;14.40;99.90
23371;DHT22;11858;51.056;3.712;2022-10-16T07:28:37;14.30;99.90
23371;DHT22;11858;51.056;3.712;2022-10-16T07:31:04;14.20;99.90
23371;DHT22;11858;51.056;3.712;2022-10-16T07:33:30;14.40;99.90
23371;DHT22;11858;51.056;3.712;2022-10-16T07:35:56;15.20;99.90
23371;DHT22;11858;51.056;3.712;2022-10-16T07:38:22;16.40;99.90
23371;DHT22;11858;51.056;3.712;2022-10-16T07:40:55;17.30;99.90
23371;DHT22;11858;51.056;3.712;2022-10-16T07:43:20;18.10;99.90
23371;DHT22;11858;51.056;3.712;2022-10-16T07:45:48;18.50;99.90
23371;DHT22;11858;51.056;3.712;2022-10-16T07:48:15;19.00;99.90
23371;DHT22;11858;51.056;3.712;2022-10-16T07:50:41;20.00;99.90
23371;DHT22;11858;51.056;3.712;2022-10-16T07:53:07;20.80;99.90
23371;DHT22;11858;51.056;3.712;2022-10-16T07:55:32;19.70;99.90
23371;DHT22;11858;51.056;3.712;2022-10-16T07:57:58;19.70;99.90
23371;DHT22;11858;51.056;3.712;2022-10-16T08:00:23;20.30;99.90
23371;DHT22;11858;51.056;3.712;2022-10-16T08:02:49;20.70;99.90
23371;DHT22;11858;51.056;3.712;2022-10-16T08:05:15;20.50;99.90
23371;DHT22;11858;51.056;3.712;2022-10-16T08:07:41;20.90;99.90
23371;DHT22;11858;51.056;3.712;2022-10-16T08:10:10;21.50;99.90
23371;DHT22;11858;51.056;3.712;2022-10-16T08:12:37;22.20;99.90
23371;DHT22;11858;51.056;3.712;2022-10-16T08:15:03;21.10;99.90
23371;DHT22;11858;51.056;3.712;2022-10-16T08:17:29;20.00;99.90
23371;DHT22;11858;51.056;3.712;2022-10-16T08:19:54;19.50;99.90
23371;DHT22;11858;51.056;3.712;2022-10-16T08:22:20;19.30;99.90
23371;DHT22;11858;51.056;3.712;2022-10-16T08:24:46;19.20;99.90
23371;DHT22;11858;51.056;3.712;2022-10-16T08:27:11;19.80;99.90
23371;DHT22;11858;51.056;3.712;2022-10-16T08:29:37;21.30;99.90
23371;DHT22;11858;51.056;3.712;2022-10-16T08:32:04;21.30;99.90
23371;DHT22;11858;51.056;3.712;2022-10-16T08:34:30;21.00;99.90
23371;DHT22;11858;51.056;3.712;2022-10-16T08:36:55;20.70;99.90
23371;DHT22;11858;51.056;3.712;2022-10-16T08:39:21;21.30;99.90
23371;DHT22;11858;51.056;3.712;2022-10-16T08:47:03;22.80;99.90
23371;DHT22;11858;51.056;3.712;2022-10-16T08:49:31;23.60;99.90
23371;DHT22;11858;51.056;3.712;2022-10-16T08:51:57;23.50;99.90
23371;DHT22;11858;51.056;3.712;2022-10-16T08:54:43;23.20;99.90
23371;DHT22;11858;51.056;3.712;2022-10-16T08:57:19;22.90;99.90
23371;DHT22;11858;51.056;3.712;2022-10-16T08:59:45;22.10;99.90
23371;DHT22;11858;51.056;3.712;2022-10-16T09:08:15;20.70;99.90
23371;DHT22;11858;51.056;3.712;2022-10-16T09:10:57;20.30;99.90
23371;DHT22;11858;51.056;3.712;2022-10-16T09:13:50;20.60;99.90
23371;DHT22;11858;51.056;3.712;2022-10-16T09:16:30;21.80;99.90
23371;DHT22;11858;51.056;3.712;2022-10-16T09:19:04;23.30;99.90
23371;DHT22;11858;51.056;3.712;2022-10-16T09:21:42;24.00;99.90
23371;DHT22;11858;51.056;3.712;2022-10-16T09:24:21;24.10;99.90
23371;DHT22;11858;51.056;3.712;2022-10-16T09:26:49;24.20;99.90
23371;DHT22;11858;51.056;3.712;2022-10-16T09:29:17;24.20;99.90
23371;DHT22;11858;51.056;3.712;2022-10-16T09:31:45;24.20;99.90
23371;DHT22;11858;51.056;3.712;2022-10-16T09:34:32;24.20;99.90
23371;DHT22;11858;51.056;3.712;2022-10-16T09:36:59;24.20;99.90
23371;DHT22;11858;51.056;3.712;2022-10-16T09:39:28;24.00;99.90
23371;DHT22;11858;51.056;3.712;2022-10-16T09:41:54;24.50;99.90
23371;DHT22;11858;51.056;3.712;2022-10-16T09:44:24;24.90;99.90
23371;DHT22;11858;51.056;3.712;2022-10-16T09:47:03;25.80;99.90
23371;DHT22;11858;51.056;3.712;2022-10-16T09:49:29;26.10;99.90
23371;DHT22;11858;51.056;3.712;2022-10-16T09:52:15;25.70;99.90
23371;DHT22;11858;51.056;3.712;2022-10-16T09:55:09;25.90;99.90
23371;DHT22;11858;51.056;3.712;2022-10-16T09:57:50;25.70;99.90
23371;DHT22;11858;51.056;3.712;2022-10-16T10:00:17;26.00;99.90
23371;DHT22;11858;51.056;3.712;2022-10-16T10:02:44;26.10;99.90
23371;DHT22;11858;51.056;3.712;2022-10-16T10:05:25;26.20;99.90
23371;DHT22;11858;51.056;3.712;2022-10-16T10:08:04;26.20;99.90
23371;DHT22;11858;51.056;3.712;2022-10-16T10:10:34;27.10;99.90
23371;DHT22;11858;51.056;3.712;2022-10-16T10:13:02;27.40;99.90
23371;DHT22;11858;51.056;3.712;2022-10-16T10:15:33;26.70;99.90
23371;DHT22;11858;51.056;3.712;2022-10-16T10:18:00;26.90;99.90
23371;DHT22;11858;51.056;3.712;2022-10-16T10:20:31;27.30;99.90
23371;DHT22;11858;51.056;3.712;2022-10-16T10:23:01;27.20;99.90
23371;DHT22;11858;51.056;3.712;2022-10-16T10:25:42;26.80;99.90
23371;DHT22;11858;51.056;3.712;2022-10-16T10:31:03;27.00;99.90
23371;DHT22;11858;51.056;3.712;2022-10-16T10:33:59;25.80;99.90
23371;DHT22;11858;51.056;3.712;2022-10-16T10:36:34;25.20;99.90
23371;DHT22;11858;51.056;3.712;2022-10-16T10:39:36;25.20;99.90
23371;DHT22;11858;51.056;3.712;2022-10-16T10:55:40;25.20;99.90
23371;DHT22;11858;51.056;3.712;2022-10-16T10:58:27;26.20;99.90
23371;DHT22;11858;51.056;3.712;2022-10-16T11:01:16;28.00;99.90
23371;DHT22;11858;51.056;3.712;2022-10-16T11:06:40;26.40;99.90
23371;DHT22;11858;51.056;3.712;2022-10-16T11:09:27;26.70;99.90
23371;DHT22;11858;51.056;3.712;2022-10-16T11:12:01;26.00;99.90
23371;DHT22;11858;51.056;3.712;2022-10-16T11:14:36;25.10;99.90
23371;DHT22;11858;51.056;3.712;2022-10-16T11:17:22;25.60;99.90
23371;DHT22;11858;51.056;3.712;2022-10-16T11:20:11;26.70;99.90
23371;DHT22;11858;51.056;3.712;2022-10-16T11:25:40;26.10;99.90
23371;DHT22;11858;51.056;3.712;2022-10-16T11:28:23;24.90;99.90
23371;DHT22;11858;51.056;3.712;2022-10-16T11:33:51;23.00;99.90
23371;DHT22;11858;51.056;3.712;2022-10-16T11:36:25;22.40;99.90
23371;DHT22;11858;51.056;3.712;2022-10-16T11:49:26;27.70;99.90
23371;DHT22;11858;51.056;3.712;2022-10-16T11:52:10;28.60;98.40
23371;DHT22;11858;51.056;3.712;2022-10-16T11:54:50;28.10;96.50
23371;DHT22;11858;51.056;3.712;2022-10-16T11:57:24;29.00;94.30
23371;DHT22;11858;51.056;3.712;2022-10-16T12:00:08;28.90;93.50
23371;DHT22;11858;51.056;3.712;2022-10-16T12:08:08;29.90;90.30
23371;DHT22;11858;51.056;3.712;2022-10-16T12:10:35;29.80;90.00
23371;DHT22;11858;51.056;3.712;2022-10-16T12:13:05;29.30;87.90
23371;DHT22;11858;51.056;3.712;2022-10-16T12:15:33;29.10;89.10
23371;DHT22;11858;51.056;3.712;2022-10-16T12:18:00;29.60;87.60
23371;DHT22;11858;51.056;3.712;2022-10-16T12:20:33;29.40;86.00
23371;DHT22;11858;51.056;3.712;2022-10-16T12:23:05;29.60;85.10
23371;DHT22;11858;51.056;3.712;2022-10-16T12:25:33;30.70;81.20
23371;DHT22;11858;51.056;3.712;2022-10-16T12:30:41;29.10;80.90
23371;DHT22;11858;51.056;3.712;2022-10-16T12:33:39;28.30;85.60
23371;DHT22;11858;51.056;3.712;2022-10-16T12:36:26;28.50;85.70
23371;DHT22;11858;51.056;3.712;2022-10-16T12:38:53;28.80;85.60
23371;DHT22;11858;51.056;3.712;2022-10-16T12:41:29;28.00;87.50
23371;DHT22;11858;51.056;3.712;2022-10-16T12:43:55;28.60;84.80
23371;DHT22;11858;51.056;3.712;2022-10-16T12:46:33;28.90;83.90
23371;DHT22;11858;51.056;3.712;2022-10-16T12:51:38;29.70;82.70
23371;DHT22;11858;51.056;3.712;2022-10-16T12:54:27;28.40;85.40
23371;DHT22;11858;51.056;3.712;2022-10-16T13:06:33;27.60;92.10
23371;DHT22;11858;51.056;3.712;2022-10-16T13:22:37;24.20;99.90
23371;DHT22;11858;51.056;3.712;2022-10-16T13:26:03;23.90;99.90
23371;DHT22;11858;51.056;3.712;2022-10-16T13:28:10;23.90;99.90
23371;DHT22;11858;51.056;3.712;2022-10-16T13:30:51;24.00;99.90
23371;DHT22;11858;51.056;3.712;2022-10-16T13:33:39;23.80;99.90
23371;DHT22;11858;51.056;3.712;2022-10-16T13:36:07;23.40;99.90
23371;DHT22;11858;51.056;3.712;2022-10-16T13:38:44;23.30;99.90
23371;DHT22;11858;51.056;3.712;2022-10-16T13:41:16;23.90;99.90
23371;DHT22;11858;51.056;3.712;2022-10-16T13:43:49;24.20;99.90
23371;DHT22;11858;51.056;3.712;2022-10-16T13:48:44;24.90;99.90
23371;DHT22;11858;51.056;3.712;2022-10-16T13:51:15;24.90;99.90
23371;DHT22;11858;51.056;3.712;2022-10-16T13:53:41;24.60;99.90
23371;DHT22;11858;51.056;3.712;2022-10-16T13:56:12;24.20;99.90
23371;DHT22;11858;51.056;3.712;2022-10-16T13:58:38;23.40;99.90
23371;DHT22;11858;51.056;3.712;2022-10-16T14:01:06;22.80;99.90
23371;DHT22;11858;51.056;3.712;2022-10-16T14:03:41;22.90;99.90
23371;DHT22;11858;51.056;3.712;2022-10-16T14:06:13;22.70;99.90
23371;DHT22;11858;51.056;3.712;2022-10-16T14:08:46;22.60;99.90
23371;DHT22;11858;51.056;3.712;2022-10-16T14:11:23;22.40;99.90
23371;DHT22;11858;51.056;3.712;2022-10-16T14:13:51;22.40;99.90
23371;DHT22;11858;51.056;3.712;2022-10-16T14:16:25;22.60;99.90
23371;DHT22;11858;51.056;3.712;2022-10-16T14:19:02;22.70;99.90
23371;DHT22;11858;51.056;3.712;2022-10-16T14:21:29;22.30;99.90
23371;DHT22;11858;51.056;3.712;2022-10-16T14:23:56;22.00;99.90
23371;DHT22;11858;51.056;3.712;2022-10-16T14:26:41;21.80;99.90
23371;DHT22;11858;51.056;3.712;2022-10-16T14:29:17;21.60;99.90
23371;DHT22;11858;51.056;3.712;2022-10-16T14:31:58;21.60;99.90
23371;DHT22;11858;51.056;3.712;2022-10-16T14:34:35;21.50;99.90
23371;DHT22;11858;51.056;3.712;2022-10-16T14:37:09;21.50;99.90
23371;DHT22;11858;51.056;3.712;2022-10-16T14:39:35;21.00;99.90
23371;DHT22;11858;51.056;3.712;2022-10-16T14:42:01;21.10;99.90
23371;DHT22;11858;51.056;3.712;2022-10-16T14:44:33;21.10;99.90
23371;DHT22;11858;51.056;3.712;2022-10-16T14:47:12;21.10;99.90
23371;DHT22;11858;51.056;3.712;2022-10-16T14:49:38;20.90;99.90
23371;DHT22;11858;51.056;3.712;2022-10-16T14:52:13;20.60;99.90
23371;DHT22;11858;51.056;3.712;2022-10-16T14:54:39;20.80;99.90
23371;DHT22;11858;51.056;3.712;2022-10-16T14:57:05;20.60;99.90
23371;DHT22;11858;51.056;3.712;2022-10-16T14:59:41;20.60;99.90
23371;DHT22;11858;51.056;3.712;2022-10-16T15:02:31;20.50;99.90
23371;DHT22;11858;51.056;3.712;2022-10-16T15:04:57;20.60;99.90
23371;DHT22;11858;51.056;3.712;2022-10-16T15:07:24;20.60;99.90
23371;DHT22;11858;51.056;3.712;2022-10-16T15:09:50;20.40;99.90
23371;DHT22;11858;51.056;3.712;2022-10-16T15:12:17;20.40;99.90
23371;DHT22;11858;51.056;3.712;2022-10-16T15:14:43;20.50;99.90
23371;DHT22;11858;51.056;3.712;2022-10-16T15:17:10;20.40;99.90
23371;DHT22;11858;51.056;3.712;2022-10-16T15:19:36;20.20;99.90
23371;DHT22;11858;51.056;3.712;2022-10-16T15:22:02;20.10;99.90
23371;DHT22;11858;51.056;3.712;2022-10-16T15:24:28;20.10;99.90
23371;DHT22;11858;51.056;3.712;2022-10-16T15:26:55;20.20;99.90
23371;DHT22;11858;51.056;3.712;2022-10-16T15:29:21;20.10;99.90
23371;DHT22;11858;51.056;3.712;2022-10-16T15:31:47;20.20;99.90
23371;DHT22;11858;51.056;3.712;2022-10-16T15:34:13;20.30;99.90
23371;DHT22;11858;51.056;3.712;2022-10-16T15:36:39;20.50;99.90
23371;DHT22;11858;51.056;3.712;2022-10-16T15:39:17;20.40;99.90
23371;DHT22;11858;51.056;3.712;2022-10-16T15:41:45;20.40;99.90
23371;DHT22;11858;51.056;3.712;2022-10-16T15:44:16;20.20;99.90
23371;DHT22;11858;51.056;3.712;2022-10-16T15:46:42;20.30;99.90
23371;DHT22;11858;51.056;3.712;2022-10-16T15:49:09;20.20;99.90
23371;DHT22;11858;51.056;3.712;2022-10-16T15:51:38;20.30;99.90
23371;DHT22;11858;51.056;3.712;2022-10-16T15:54:04;20.40;99.90
23371;DHT22;11858;51.056;3.712;2022-10-16T15:56:30;20.30;99.90
23371;DHT22;11858;51.056;3.712;2022-10-16T15:58:59;20.10;99.90
23371;DHT22;11858;51.056;3.712;2022-10-16T16:01:26;20.00;99.90
23371;DHT22;11858;51.056;3.712;2022-10-16T16:03:55;19.90;99.90
23371;DHT22;11858;51.056;3.712;2022-10-16T16:06:22;19.80;99.90
23371;DHT22;11858;51.056;3.712;2022-10-16T16:08:50;19.80;99.90
23371;DHT22;11858;51.056;3.712;2022-10-16T16:11:17;19.80;99.90
23371;DHT22;11858;51.056;3.712;2022-10-16T16:13:43;19.90;99.90
23371;DHT22;11858;51.056;3.712;2022-10-16T16:16:17;19.80;99.90
23371;DHT22;11858;51.056;3.712;2022-10-16T16:18:43;19.80;99.90
23371;DHT22;11858;51.056;3.712;2022-10-16T16:21:12;19.80;99.90
23371;DHT22;11858;51.056;3.712;2022-10-16T16:23:38;19.80;99.90
23371;DHT22;11858;51.056;3.712;2022-10-16T16:28:40;19.80;99.90
23371;DHT22;11858;51.056;3.712;2022-10-16T16:31:06;19.80;99.90
23371;DHT22;11858;51.056;3.712;2022-10-16T16:33:33;19.70;99.90
23371;DHT22;11858;51.056;3.712;2022-10-16T16:36:00;19.70;99.90
23371;DHT22;11858;51.056;3.712;2022-10-16T16:38:27;19.60;99.90
23371;DHT22;11858;51.056;3.712;2022-10-16T16:40:53;19.50;99.90
23371;DHT22;11858;51.056;3.712;2022-10-16T16:43:23;19.40;99.90
23371;DHT22;11858;51.056;3.712;2022-10-16T16:45:49;19.30;99.90
23371;DHT22;11858;51.056;3.712;2022-10-16T16:48:15;19.40;99.90
23371;DHT22;11858;51.056;3.712;2022-10-16T16:50:41;19.40;99.90
23371;DHT22;11858;51.056;3.712;2022-10-16T16:53:07;19.40;99.90
23371;DHT22;11858;51.056;3.712;2022-10-16T16:55:33;19.30;99.90
23371;DHT22;11858;51.056;3.712;2022-10-16T16:57:59;19.30;99.90
23371;DHT22;11858;51.056;3.712;2022-10-16T17:00:25;19.30;99.90
23371;DHT22;11858;51.056;3.712;2022-10-16T17:02:51;19.20;99.90
23371;DHT22;11858;51.056;3.712;2022-10-16T17:05:18;19.20;99.90
23371;DHT22;11858;51.056;3.712;2022-10-16T17:07:44;19.20;99.90
23371;DHT22;11858;51.056;3.712;2022-10-16T17:10:10;19.20;99.90
23371;DHT22;11858;51.056;3.712;2022-10-16T17:12:35;19.20;99.90
23371;DHT22;11858;51.056;3.712;2022-10-16T17:15:02;19.00;99.90
23371;DHT22;11858;51.056;3.712;2022-10-16T17:17:28;19.10;99.90
23371;DHT22;11858;51.056;3.712;2022-10-16T17:19:54;19.10;99.90
23371;DHT22;11858;51.056;3.712;2022-10-16T17:22:20;19.00;99.90
23371;DHT22;11858;51.056;3.712;2022-10-16T17:24:49;19.00;99.90
23371;DHT22;11858;51.056;3.712;2022-10-16T17:27:19;18.90;99.90
23371;DHT22;11858;51.056;3.712;2022-10-16T17:29:49;19.00;99.90
23371;DHT22;11858;51.056;3.712;2022-10-16T17:32:15;19.00;99.90